Time;durP1;ratioP1;P1;durP2;ratioP2;P2;SDS_P1;SDS_P2;PMS_P1;PMS_P2;Temp;Humidity;BMP_temperature;BMP_pressure;BME280_temperature;BME280_humidity;BME280_pressure;Samples;Min_cycle;Max_cycle;Signal;HPM_P1;HPM_P2
2022/02/28 00:00:48;;;;;;;4.47;3.90;;;5.60;93.90;;;;;;5055014;28;20692;-70
2022/02/28 00:03:14;;;;;;;5.13;4.17;;;5.60;93.80;;;;;;5054702;28;20498;-69
2022/02/28 00:05:39;;;;;;;6.77;4.40;;;5.60;93.70;;;;;;5054415;28;20476;-70
2022/02/28 00:08:05;;;;;;;5.47;3.87;;;5.60;93.70;;;;;;5054441;28;20186;-70
2022/02/28 00:10:31;;;;;;;7.00;4.73;;;5.60;93.80;;;;;;5054397;28;20680;-68
2022/02/28 00:12:56;;;;;;;5.37;4.77;;;5.60;93.70;;;;;;5053369;28;20269;-68
2022/02/28 00:15:22;;;;;;;5.40;4.00;;;5.60;93.50;;;;;;5055379;28;20732;-67
2022/02/28 00:17:48;;;;;;;6.30;4.40;;;5.60;93.50;;;;;;5054320;28;20719;-69
2022/02/28 00:20:15;;;;;;;8.57;4.60;;;5.60;93.30;;;;;;5054232;28;20175;-68
2022/02/28 00:22:42;;;;;;;5.70;4.70;;;5.60;93.20;;;;;;5053640;28;20229;-68
2022/02/28 00:25:09;;;;;;;5.20;4.70;;;5.60;93.20;;;;;;5055303;28;20431;-71
2022/02/28 00:27:35;;;;;;;4.87;4.37;;;5.60;93.00;;;;;;5054231;28;20438;-68
2022/02/28 00:30:02;;;;;;;4.67;4.27;;;5.60;93.00;;;;;;5054219;28;20420;-69
2022/02/28 00:32:28;;;;;;;5.30;4.80;;;5.60;93.00;;;;;;5053526;28;20501;-69
2022/02/28 00:34:53;;;;;;;6.90;5.13;;;5.60;93.00;;;;;;5055380;28;20471;-68
2022/02/28 00:37:19;;;;;;;6.57;5.30;;;5.50;93.00;;;;;;5036246;28;20657;-68
2022/02/28 00:39:45;;;;;;;6.43;4.77;;;5.60;92.90;;;;;;5073871;28;20189;-68
2022/02/28 00:42:11;;;;;;;6.00;4.83;;;5.60;92.90;;;;;;5073439;28;20463;-67
2022/02/28 00:44:37;;;;;;;6.80;4.27;;;5.50;92.90;;;;;;5073967;28;20928;-68
2022/02/28 00:47:04;;;;;;;4.70;4.20;;;5.60;92.80;;;;;;5074324;28;20420;-68
2022/02/28 00:49:30;;;;;;;7.33;5.67;;;5.60;92.90;;;;;;5071602;28;20284;-68
2022/02/28 00:51:55;;;;;;;5.90;4.50;;;5.50;92.70;;;;;;5074776;28;20437;-69
2022/02/28 00:54:21;;;;;;;5.17;4.40;;;5.50;92.80;;;;;;5084175;28;20187;-69
2022/02/28 00:56:46;;;;;;;4.90;4.37;;;5.50;92.90;;;;;;5077015;28;20227;-69
2022/02/28 00:59:12;;;;;;;6.13;4.63;;;5.40;92.70;;;;;;5074124;28;20183;-68
2022/02/28 01:01:37;;;;;;;5.70;5.03;;;5.50;93.00;;;;;;5075502;28;20214;-67
2022/02/28 01:04:04;;;;;;;6.80;5.30;;;5.50;92.90;;;;;;5076019;28;20262;-68
2022/02/28 01:06:30;;;;;;;5.83;4.97;;;5.40;92.90;;;;;;5075332;28;20293;-67
2022/02/28 01:08:55;;;;;;;7.87;4.60;;;5.40;92.90;;;;;;5073616;28;20444;-68
2022/02/28 01:11:21;;;;;;;6.40;5.03;;;5.40;92.90;;;;;;5072499;28;20820;-68
2022/02/28 01:13:47;;;;;;;8.80;4.57;;;5.40;92.80;;;;;;5074444;28;20666;-69
2022/02/28 01:16:12;;;;;;;6.23;4.90;;;5.30;92.70;;;;;;5074375;28;20179;-68
2022/02/28 01:18:38;;;;;;;6.40;4.97;;;5.20;92.80;;;;;;5073943;28;20183;-68
2022/02/28 01:21:03;;;;;;;8.33;4.53;;;5.10;92.90;;;;;;5072402;28;20206;-69
2022/02/28 01:23:29;;;;;;;5.87;5.03;;;5.10;93.20;;;;;;5072913;28;20218;-68
2022/02/28 01:25:55;;;;;;;5.33;4.80;;;5.00;93.10;;;;;;5074232;28;20548;-68
2022/02/28 01:28:21;;;;;;;7.73;5.20;;;4.90;92.90;;;;;;5074483;28;20650;-68
2022/02/28 01:30:47;;;;;;;5.57;4.80;;;5.00;93.20;;;;;;5072399;28;20344;-68
2022/02/28 01:33:12;;;;;;;7.67;5.00;;;5.00;93.20;;;;;;5073781;28;20445;-70
2022/02/28 01:35:38;;;;;;;7.53;4.87;;;5.00;93.10;;;;;;5074087;28;20196;-71
2022/02/28 01:38:04;;;;;;;4.90;4.40;;;4.90;93.30;;;;;;5074517;28;20244;-68
2022/02/28 01:40:30;;;;;;;6.40;4.80;;;4.80;93.40;;;;;;5074136;28;20641;-68
2022/02/28 01:42:55;;;;;;;5.10;4.53;;;4.80;93.20;;;;;;5071431;28;20469;-69
2022/02/28 01:45:22;;;;;;;5.47;4.97;;;4.80;93.20;;;;;;5073838;28;20175;-68
2022/02/28 01:47:50;;;;;;;5.00;4.60;;;4.80;93.20;;;;;;5074002;28;20610;-69
2022/02/28 01:50:15;;;;;;;7.03;5.30;;;4.90;93.30;;;;;;5074040;28;20507;-67
2022/02/28 01:52:41;;;;;;;7.43;4.87;;;4.90;93.20;;;;;;5071992;28;20841;-68
2022/02/28 01:55:11;;;;;;;5.20;4.60;;;4.90;93.30;;;;;;5073893;28;20180;-68
2022/02/28 01:57:37;;;;;;;6.83;4.67;;;4.90;93.20;;;;;;5073740;28;20756;-69
2022/02/28 02:00:06;;;;;;;5.67;4.80;;;4.90;93.00;;;;;;5055482;28;20428;-69
2022/02/28 02:02:32;;;;;;;7.60;5.30;;;4.90;93.10;;;;;;5053168;28;20190;-68
2022/02/28 02:04:57;;;;;;;5.83;5.23;;;4.80;93.40;;;;;;5073791;28;20489;-71
2022/02/28 02:07:23;;;;;;;11.43;5.27;;;4.80;93.10;;;;;;5074201;28;20186;-69
2022/02/28 02:09:48;;;;;;;6.10;5.27;;;4.80;93.30;;;;;;5073551;28;20180;-70
2022/02/28 02:12:14;;;;;;;7.20;5.50;;;4.80;93.10;;;;;;5072908;28;20253;-68
2022/02/28 02:14:40;;;;;;;6.93;5.67;;;4.80;93.40;;;;;;5071788;28;20213;-67
2022/02/28 02:17:06;;;;;;;5.50;5.00;;;4.70;93.90;;;;;;5072785;28;20186;-68
2022/02/28 02:19:35;;;;;;;6.40;5.23;;;4.70;93.50;;;;;;5072950;28;20424;-67
2022/02/28 02:22:00;;;;;;;7.70;5.33;;;4.70;93.70;;;;;;5074971;28;20245;-67
2022/02/28 02:24:26;;;;;;;6.00;5.20;;;4.80;93.60;;;;;;5075236;28;20963;-69
2022/02/28 02:26:51;;;;;;;5.20;4.70;;;4.80;93.50;;;;;;5076682;28;20258;-69
2022/02/28 02:29:17;;;;;;;7.70;5.00;;;4.80;93.30;;;;;;5076991;28;20265;-68
2022/02/28 02:31:42;;;;;;;6.33;5.70;;;4.80;93.30;;;;;;5077529;28;20201;-69
2022/02/28 02:34:08;;;;;;;5.73;4.80;;;4.70;93.50;;;;;;5077084;28;20189;-69
2022/02/28 02:36:33;;;;;;;6.47;5.27;;;4.60;93.80;;;;;;5075270;28;20832;-69
2022/02/28 02:38:59;;;;;;;8.20;5.37;;;4.50;94.00;;;;;;5062135;28;20184;-69
2022/02/28 02:41:24;;;;;;;5.83;5.00;;;4.50;94.10;;;;;;5056137;28;20219;-69
2022/02/28 02:43:50;;;;;;;5.50;4.90;;;4.50;93.80;;;;;;5056137;28;20207;-69
2022/02/28 02:46:16;;;;;;;8.50;5.20;;;4.50;93.90;;;;;;5055768;28;20178;-69
2022/02/28 02:48:42;;;;;;;5.77;5.17;;;4.50;93.70;;;;;;5057144;28;20217;-69
2022/02/28 02:51:07;;;;;;;6.13;5.10;;;4.50;93.80;;;;;;5055731;28;20441;-68
2022/02/28 02:53:33;;;;;;;6.80;4.90;;;4.50;93.90;;;;;;5055788;28;20715;-69
2022/02/28 02:55:59;;;;;;;6.63;5.00;;;4.50;94.10;;;;;;5055824;28;20734;-68
2022/02/28 02:58:24;;;;;;;5.40;4.90;;;4.50;94.30;;;;;;5056004;28;20261;-68
2022/02/28 03:00:52;;;;;;;7.03;5.13;;;4.40;94.10;;;;;;5056607;28;20606;-68
2022/02/28 03:03:19;;;;;;;6.73;5.90;;;4.40;94.10;;;;;;5055455;28;20222;-69
2022/02/28 03:05:46;;;;;;;8.30;5.17;;;4.40;94.30;;;;;;5055688;28;20889;-69
2022/02/28 03:08:12;;;;;;;6.00;4.97;;;4.40;94.40;;;;;;5055744;28;20428;-68
2022/02/28 03:10:38;;;;;;;5.77;5.17;;;4.40;94.40;;;;;;5056789;28;20986;-68
2022/02/28 03:13:04;;;;;;;6.47;5.07;;;4.40;94.50;;;;;;5054573;28;20414;-68
2022/02/28 03:15:30;;;;;;;6.23;5.63;;;4.30;94.50;;;;;;5055632;28;20559;-69
2022/02/28 03:17:55;;;;;;;7.93;6.00;;;4.30;94.60;;;;;;5056066;28;20189;-68
2022/02/28 03:20:22;;;;;;;7.43;5.20;;;4.30;94.80;;;;;;5056922;28;20220;-69
2022/02/28 03:22:48;;;;;;;9.57;5.47;;;4.30;94.90;;;;;;5055704;28;20273;-69
2022/02/28 03:25:14;;;;;;;5.57;5.00;;;4.20;95.10;;;;;;5055651;28;20418;-69
2022/02/28 03:27:40;;;;;;;6.90;5.40;;;4.20;95.30;;;;;;5055376;28;20466;-69
2022/02/28 03:30:07;;;;;;;6.80;5.40;;;4.20;94.80;;;;;;5055662;28;20172;-68
2022/02/28 03:32:33;;;;;;;9.23;5.80;;;4.20;94.70;;;;;;5055887;28;20238;-67
2022/02/28 03:34:58;;;;;;;6.43;5.83;;;4.20;94.90;;;;;;5055926;28;20911;-68
2022/02/28 03:37:24;;;;;;;7.00;5.37;;;4.20;95.00;;;;;;5056467;28;20414;-69
2022/02/28 03:39:49;;;;;;;7.17;5.57;;;4.20;94.80;;;;;;5055973;28;20178;-68
2022/02/28 03:42:15;;;;;;;7.00;5.40;;;4.20;94.90;;;;;;5056550;28;20308;-68
2022/02/28 03:44:41;;;;;;;6.00;5.40;;;4.10;95.10;;;;;;5088985;22;20271;-71
2022/02/28 03:47:07;;;;;;;6.00;5.40;;;4.10;95.60;;;;;;5055733;28;20582;-71
2022/02/28 03:49:32;;;;;;;8.97;5.67;;;4.00;95.60;;;;;;5055989;28;20408;-71
2022/02/28 03:51:58;;;;;;;7.67;5.80;;;4.00;95.70;;;;;;5059903;28;20189;-71
2022/02/28 03:54:23;;;;;;;7.13;5.70;;;3.90;95.90;;;;;;5057681;28;20202;-71
2022/02/28 03:56:49;;;;;;;7.23;5.57;;;3.90;96.00;;;;;;5054745;28;20231;-71
2022/02/28 03:59:15;;;;;;;7.50;5.70;;;4.00;95.90;;;;;;5056179;28;20178;-72
2022/02/28 04:01:40;;;;;;;8.93;6.47;;;4.00;95.70;;;;;;5056208;28;20184;-72
2022/02/28 04:04:07;;;;;;;6.33;5.73;;;4.00;95.70;;;;;;5062463;28;20556;-71
2022/02/28 04:06:33;;;;;;;7.23;5.73;;;4.00;95.80;;;;;;5075695;28;20237;-71
2022/02/28 04:09:00;;;;;;;6.90;5.07;;;4.00;95.70;;;;;;5076317;28;20411;-71
2022/02/28 04:11:26;;;;;;;6.97;5.40;;;4.00;95.90;;;;;;5077654;28;20172;-71
2022/02/28 04:13:51;;;;;;;7.87;6.27;;;3.90;95.70;;;;;;5078488;28;20442;-71
2022/02/28 04:16:17;;;;;;;8.30;5.17;;;3.90;95.60;;;;;;5065235;28;20461;-71
2022/02/28 04:18:42;;;;;;;5.53;4.90;;;3.90;95.40;;;;;;5054285;28;20670;-71
2022/02/28 04:21:08;;;;;;;7.23;4.83;;;4.00;95.50;;;;;;5053587;28;20239;-71
2022/02/28 04:23:34;;;;;;;6.43;5.70;;;4.00;95.50;;;;;;5053786;28;20229;-71
2022/02/28 04:26:01;;;;;;;6.67;5.63;;;4.10;95.10;;;;;;5053607;28;20439;-71
2022/02/28 04:28:26;;;;;;;6.90;5.97;;;4.10;95.10;;;;;;5052962;28;20171;-71
2022/02/28 04:30:52;;;;;;;7.30;5.53;;;4.10;95.20;;;;;;5053994;28;20416;-71
2022/02/28 04:33:17;;;;;;;6.80;6.20;;;4.20;94.90;;;;;;5053384;28;20497;-71
2022/02/28 04:35:43;;;;;;;12.17;7.00;;;4.20;94.90;;;;;;5054326;28;20190;-71
2022/02/28 04:38:09;;;;;;;10.63;7.23;;;4.10;95.00;;;;;;5052207;28;20182;-71
2022/02/28 04:40:35;;;;;;;11.03;6.80;;;4.10;95.60;;;;;;5053348;28;20276;-71
2022/02/28 04:43:00;;;;;;;12.47;7.20;;;4.10;95.30;;;;;;5053169;28;20983;-71
2022/02/28 04:45:26;;;;;;;10.83;8.27;;;4.00;95.20;;;;;;5036094;28;20249;-71
2022/02/28 04:47:52;;;;;;;9.03;7.40;;;4.00;95.20;;;;;;5052589;28;20204;-71
2022/02/28 04:50:17;;;;;;;8.50;7.40;;;4.00;95.70;;;;;;5053443;28;20528;-71
2022/02/28 04:52:43;;;;;;;7.77;6.97;;;4.00;95.70;;;;;;5052286;28;20188;-71
2022/02/28 04:55:08;;;;;;;10.50;7.73;;;4.00;95.80;;;;;;5052870;28;20179;-71
2022/02/28 04:57:39;;;;;;;9.70;7.43;;;3.90;95.70;;;;;;5054100;28;20659;-72
2022/02/28 05:00:06;;;;;;;9.73;7.50;;;3.90;95.90;;;;;;5052905;28;20245;-71
2022/02/28 05:02:31;;;;;;;11.53;7.30;;;3.90;96.10;;;;;;5053240;28;20442;-71
2022/02/28 05:04:57;;;;;;;8.03;6.57;;;3.90;95.90;;;;;;5053231;28;20455;-71
2022/02/28 05:07:22;;;;;;;8.00;6.57;;;3.90;95.60;;;;;;5053875;28;20192;-72
2022/02/28 05:09:48;;;;;;;6.80;5.83;;;3.90;95.60;;;;;;5076633;28;20167;-71
2022/02/28 05:12:14;;;;;;;9.33;6.20;;;3.90;95.50;;;;;;5076787;28;20218;-71
2022/02/28 05:14:39;;;;;;;7.03;5.80;;;3.90;95.90;;;;;;5077329;28;20233;-71
2022/02/28 05:17:05;;;;;;;8.77;6.33;;;3.80;95.90;;;;;;5077699;28;20186;-72
2022/02/28 05:19:30;;;;;;;7.73;6.93;;;3.90;96.10;;;;;;5071732;28;20227;-71
2022/02/28 05:21:57;;;;;;;8.50;7.70;;;3.90;96.00;;;;;;5052643;28;20196;-71
2022/02/28 05:24:22;;;;;;;8.13;6.83;;;3.80;96.10;;;;;;5052891;28;20201;-71
2022/02/28 05:26:48;;;;;;;10.97;7.70;;;3.80;96.40;;;;;;5053729;28;20485;-70
2022/02/28 05:29:13;;;;;;;8.33;6.80;;;3.70;96.60;;;;;;5054362;28;20188;-72
2022/02/28 05:31:38;;;;;;;11.30;8.67;;;3.60;96.80;;;;;;5052692;28;20180;-71
2022/02/28 05:34:04;;;;;;;9.87;7.90;;;3.60;96.70;;;;;;5052163;28;20208;-71
2022/02/28 05:36:29;;;;;;;10.30;7.50;;;3.60;97.20;;;;;;5052424;28;20271;-71
2022/02/28 05:38:55;;;;;;;8.90;6.03;;;3.60;97.20;;;;;;5053518;28;20552;-71
2022/02/28 05:41:21;;;;;;;8.47;6.20;;;3.70;97.10;;;;;;5052432;28;20177;-71
2022/02/28 05:43:46;;;;;;;7.57;6.83;;;3.60;97.00;;;;;;5051888;28;20587;-71
2022/02/28 05:46:12;;;;;;;9.80;7.60;;;3.60;97.00;;;;;;5053982;28;20173;-70
2022/02/28 05:48:37;;;;;;;7.97;7.17;;;3.60;96.60;;;;;;5052357;28;20176;-70
2022/02/28 05:51:03;;;;;;;10.10;7.53;;;3.60;96.80;;;;;;5053181;28;20184;-70
2022/02/28 05:53:29;;;;;;;8.23;6.43;;;3.60;97.00;;;;;;5051482;28;20204;-70
2022/02/28 05:55:54;;;;;;;8.80;6.30;;;3.60;97.40;;;;;;5054542;28;20176;-70
2022/02/28 05:58:20;;;;;;;9.10;6.23;;;3.60;97.40;;;;;;5055637;28;20186;-70
2022/02/28 06:00:45;;;;;;;7.70;5.97;;;3.60;97.60;;;;;;5057754;28;20204;-70
2022/02/28 06:03:11;;;;;;;7.57;6.27;;;3.60;97.30;;;;;;5056289;28;20211;-70
2022/02/28 06:05:36;;;;;;;8.93;6.50;;;3.50;97.70;;;;;;5059648;28;20554;-70
2022/02/28 06:08:02;;;;;;;11.40;8.63;;;3.50;97.30;;;;;;5059193;28;20225;-69
2022/02/28 06:10:27;;;;;;;8.53;7.23;;;3.60;97.50;;;;;;5061309;28;20192;-71
2022/02/28 06:12:53;;;;;;;7.33;6.00;;;3.50;97.50;;;;;;5061884;28;20386;-71
2022/02/28 06:15:18;;;;;;;11.83;7.03;;;3.50;97.10;;;;;;5061494;28;20695;-71
2022/02/28 06:17:44;;;;;;;8.20;6.70;;;3.50;96.80;;;;;;5062535;28;20212;-72
2022/02/28 06:20:10;;;;;;;7.17;6.30;;;3.60;97.00;;;;;;5061893;28;20172;-72
2022/02/28 06:22:36;;;;;;;9.60;7.87;;;3.60;96.80;;;;;;5062061;28;20184;-70
2022/02/28 06:25:02;;;;;;;9.00;7.40;;;3.60;97.00;;;;;;5054935;28;20481;-72
2022/02/28 06:27:27;;;;;;;10.67;7.90;;;3.60;96.50;;;;;;5060069;28;20246;-71
2022/02/28 06:29:53;;;;;;;10.47;7.83;;;3.60;96.70;;;;;;5060636;28;20454;-71
2022/02/28 06:32:19;;;;;;;8.13;6.97;;;3.70;96.80;;;;;;5066630;28;20223;-72
2022/02/28 06:34:45;;;;;;;8.17;6.80;;;3.70;96.70;;;;;;5062201;28;20203;-68
2022/02/28 06:37:11;;;;;;;10.40;8.37;;;3.80;96.80;;;;;;5075146;28;20642;-70
2022/02/28 06:39:37;;;;;;;10.67;7.17;;;3.80;96.80;;;;;;5075473;28;20537;-70
2022/02/28 06:42:03;;;;;;;10.40;7.00;;;3.90;96.50;;;;;;5071981;28;20233;-71
2022/02/28 06:44:28;;;;;;;8.23;7.40;;;3.90;96.30;;;;;;5078965;28;20483;-69
2022/02/28 06:46:54;;;;;;;8.37;7.00;;;3.90;96.40;;;;;;5066198;28;20546;-70
2022/02/28 06:49:19;;;;;;;8.70;7.63;;;3.80;96.80;;;;;;5070321;28;20197;-69
2022/02/28 06:51:45;;;;;;;8.47;7.10;;;3.90;96.40;;;;;;5075458;28;20184;-69
2022/02/28 06:54:10;;;;;;;8.03;6.83;;;3.90;95.80;;;;;;5073531;28;20689;-69
2022/02/28 06:56:36;;;;;;;8.50;7.70;;;3.90;96.30;;;;;;5072855;28;20588;-69
2022/02/28 06:59:02;;;;;;;8.37;6.73;;;3.90;96.40;;;;;;5070963;28;20781;-69
2022/02/28 07:01:27;;;;;;;8.67;6.93;;;3.80;95.70;;;;;;5072778;28;20547;-69
2022/02/28 07:03:53;;;;;;;9.17;7.50;;;3.90;95.70;;;;;;5072233;28;20253;-69
2022/02/28 07:06:22;;;;;;;11.00;8.43;;;3.90;96.10;;;;;;5071831;28;20179;-69
2022/02/28 07:08:48;;;;;;;10.67;7.70;;;3.90;96.30;;;;;;5074280;28;20206;-70
2022/02/28 07:11:14;;;;;;;11.30;8.13;;;3.90;96.40;;;;;;5072414;28;20431;-70
2022/02/28 07:13:40;;;;;;;8.70;7.30;;;3.80;96.40;;;;;;5074267;28;20443;-69
2022/02/28 07:16:06;;;;;;;8.67;7.50;;;3.80;96.40;;;;;;5074338;28;20780;-71
2022/02/28 07:18:31;;;;;;;11.17;8.00;;;3.80;96.40;;;;;;5074097;28;20180;-71
2022/02/28 07:20:57;;;;;;;9.37;8.03;;;3.80;96.50;;;;;;5072257;28;20197;-70
2022/02/28 07:23:22;;;;;;;9.33;8.20;;;3.90;95.90;;;;;;5073907;28;20211;-70
2022/02/28 07:25:48;;;;;;;9.17;7.17;;;3.80;96.20;;;;;;5074828;28;20617;-70
2022/02/28 07:28:13;;;;;;;9.10;7.70;;;3.90;96.20;;;;;;5074196;28;20181;-70
2022/02/28 07:30:39;;;;;;;9.77;8.20;;;3.90;95.80;;;;;;5073012;28;20184;-70
2022/02/28 07:33:04;;;;;;;10.03;7.87;;;4.00;95.70;;;;;;5056062;28;20249;-70
2022/02/28 07:35:30;;;;;;;11.40;9.10;;;4.10;95.00;;;;;;5074483;28;20286;-70
2022/02/28 07:37:55;;;;;;;8.93;7.23;;;4.10;95.10;;;;;;5074627;28;20173;-70
2022/02/28 07:40:21;;;;;;;15.03;8.13;;;4.20;94.40;;;;;;5074681;28;20188;-70
2022/02/28 07:42:46;;;;;;;8.80;7.70;;;4.20;94.90;;;;;;5072552;28;20594;-70
2022/02/28 07:45:12;;;;;;;11.50;7.57;;;4.30;93.80;;;;;;5074960;28;20584;-71
2022/02/28 07:47:38;;;;;;;8.90;7.13;;;4.40;93.30;;;;;;5086345;28;20174;-69
2022/02/28 07:50:04;;;;;;;9.37;7.30;;;4.50;92.80;;;;;;5097436;28;20189;-68
2022/02/28 07:52:30;;;;;;;9.13;7.53;;;4.60;92.60;;;;;;5091704;28;20436;-70
2022/02/28 07:54:56;;;;;;;13.37;7.77;;;4.70;92.60;;;;;;5091297;28;20420;-71
2022/02/28 07:57:21;;;;;;;9.07;7.97;;;4.80;92.60;;;;;;5093871;28;20420;-69
2022/02/28 07:59:47;;;;;;;10.13;7.97;;;4.80;92.60;;;;;;5090198;28;20210;-70
2022/02/28 08:02:13;;;;;;;8.90;7.37;;;4.80;91.80;;;;;;5073733;28;20732;-69
2022/02/28 08:04:38;;;;;;;9.23;7.73;;;4.90;92.20;;;;;;5072124;28;20218;-69
2022/02/28 08:07:04;;;;;;;9.83;7.70;;;5.00;91.80;;;;;;5073849;28;20197;-69
2022/02/28 08:09:31;;;;;;;8.27;7.17;;;5.00;92.00;;;;;;5073562;28;20279;-70
2022/02/28 08:11:57;;;;;;;12.77;7.90;;;5.10;91.80;;;;;;5072600;28;20408;-69
2022/02/28 08:14:23;;;;;;;7.43;6.57;;;5.10;91.80;;;;;;5071280;28;20443;-70
2022/02/28 08:16:49;;;;;;;8.80;7.17;;;5.20;91.40;;;;;;5073226;28;20428;-69
2022/02/28 08:19:16;;;;;;;9.43;7.03;;;5.30;91.40;;;;;;5073124;28;20467;-70
2022/02/28 08:21:42;;;;;;;7.33;6.63;;;5.40;91.00;;;;;;5072942;28;20655;-69
2022/02/28 08:24:07;;;;;;;8.50;6.80;;;5.40;90.80;;;;;;5070946;28;20547;-70
2022/02/28 08:26:33;;;;;;;8.30;7.40;;;5.50;90.80;;;;;;5072829;28;20420;-70
2022/02/28 08:28:58;;;;;;;8.80;6.93;;;5.50;90.50;;;;;;5054943;28;20202;-68
2022/02/28 08:31:24;;;;;;;10.50;6.80;;;5.60;90.70;;;;;;5072798;28;20175;-70
2022/02/28 08:33:49;;;;;;;8.67;7.37;;;5.60;90.50;;;;;;5072507;28;20198;-70
2022/02/28 08:36:16;;;;;;;7.40;6.70;;;5.70;90.30;;;;;;5071236;28;20536;-70
2022/02/28 08:38:41;;;;;;;7.87;6.70;;;5.80;90.20;;;;;;5060879;28;20660;-72
2022/02/28 08:41:07;;;;;;;10.27;7.70;;;5.80;90.20;;;;;;5052669;28;20515;-70
2022/02/28 08:43:32;;;;;;;13.00;8.07;;;5.90;89.20;;;;;;5034519;28;20223;-70
2022/02/28 08:45:58;;;;;;;8.20;7.10;;;6.00;88.50;;;;;;5052785;28;20608;-70
2022/02/28 08:48:23;;;;;;;10.33;7.60;;;6.00;88.80;;;;;;5035605;28;20712;-70
2022/02/28 08:50:49;;;;;;;7.87;7.07;;;6.20;89.00;;;;;;5053238;28;20714;-72
2022/02/28 08:53:14;;;;;;;7.67;6.87;;;6.30;88.20;;;;;;5052210;28;20199;-70
2022/02/28 08:55:40;;;;;;;8.63;7.70;;;6.40;86.50;;;;;;5053011;28;20227;-72
2022/02/28 08:58:05;;;;;;;10.93;7.63;;;6.40;85.80;;;;;;5053039;28;20233;-70
2022/02/28 09:00:31;;;;;;;7.70;6.90;;;6.50;86.30;;;;;;5053929;28;20278;-70
2022/02/28 09:02:57;;;;;;;11.10;7.50;;;6.50;85.40;;;;;;5052476;28;20211;-70
2022/02/28 09:05:22;;;;;;;9.20;7.80;;;6.50;85.20;;;;;;5053479;28;20523;-69
2022/02/28 09:07:48;;;;;;;9.00;7.63;;;6.60;85.10;;;;;;5054004;28;20214;-70
2022/02/28 09:10:14;;;;;;;9.80;8.03;;;6.60;84.10;;;;;;5063035;28;20599;-70
2022/02/28 09:12:40;;;;;;;10.30;6.90;;;6.80;85.30;;;;;;5082083;28;20190;-70
2022/02/28 09:15:07;;;;;;;10.07;7.40;;;6.80;84.00;;;;;;5088393;28;20417;-69
2022/02/28 09:17:33;;;;;;;8.00;6.77;;;6.90;83.40;;;;;;5088304;28;20171;-69
2022/02/28 09:20:00;;;;;;;11.10;7.70;;;7.10;83.00;;;;;;5082989;28;20434;-70
2022/02/28 09:22:26;;;;;;;12.50;7.30;;;7.10;82.90;;;;;;5070203;28;20431;-71
2022/02/28 09:24:52;;;;;;;11.83;7.90;;;7.20;82.30;;;;;;5089260;28;20511;-70
2022/02/28 09:27:17;;;;;;;8.73;7.40;;;7.20;82.00;;;;;;5089905;28;20416;-69
2022/02/28 09:29:43;;;;;;;8.13;7.20;;;7.20;81.40;;;;;;5090715;28;20174;-70
2022/02/28 09:32:09;;;;;;;8.90;7.60;;;7.30;81.00;;;;;;5082874;28;20188;-70
2022/02/28 09:34:34;;;;;;;9.07;7.03;;;7.30;80.40;;;;;;5069154;28;20208;-71
2022/02/28 09:37:00;;;;;;;10.77;8.20;;;7.30;79.20;;;;;;5060001;28;20784;-70
2022/02/28 09:39:26;;;;;;;8.67;7.77;;;7.40;80.20;;;;;;5060357;28;20196;-69
2022/02/28 09:41:53;;;;;;;10.67;7.67;;;7.40;80.00;;;;;;5062623;28;20463;-70
2022/02/28 09:44:21;;;;;;;8.83;7.20;;;7.50;79.90;;;;;;5085013;22;20496;-69
2022/02/28 09:46:48;;;;;;;8.60;6.90;;;7.60;79.10;;;;;;5069913;28;20467;-70
2022/02/28 09:49:14;;;;;;;10.33;7.50;;;7.60;78.20;;;;;;5060001;28;20439;-69
2022/02/28 09:51:40;;;;;;;8.90;7.13;;;7.70;77.50;;;;;;5061359;28;20395;-68
2022/02/28 09:54:05;;;;;;;8.37;7.30;;;7.80;77.60;;;;;;5076173;28;20437;-69
2022/02/28 09:56:33;;;;;;;8.30;6.83;;;7.90;78.30;;;;;;5059361;28;20918;-68
2022/02/28 09:58:59;;;;;;;8.33;7.53;;;8.00;78.00;;;;;;5041610;28;20172;-70
2022/02/28 10:01:24;;;;;;;9.40;6.87;;;8.10;77.50;;;;;;5059793;28;20545;-69
2022/02/28 10:03:50;;;;;;;8.90;7.30;;;8.10;77.70;;;;;;5060233;28;20544;-70
2022/02/28 10:06:16;;;;;;;8.67;7.77;;;8.20;77.50;;;;;;5059339;28;20412;-68
2022/02/28 10:08:50;;;;;;;10.80;7.43;;;8.20;77.50;;;;;;5060625;28;20176;-69
2022/02/28 10:11:30;;;;;;;9.00;7.80;;;8.40;78.40;;;;;;5041305;28;20622;-69
2022/02/28 10:14:01;;;;;;;8.97;7.17;;;8.60;78.00;;;;;;5059733;28;20427;-68
2022/02/28 10:16:44;;;;;;;9.80;7.80;;;8.60;76.20;;;;;;5059168;28;20427;-69
2022/02/28 10:19:12;;;;;;;10.50;7.50;;;8.80;76.00;;;;;;5059364;28;20416;-69
2022/02/28 10:21:42;;;;;;;8.97;7.10;;;8.90;75.00;;;;;;5059798;28;20425;-69
2022/02/28 10:24:10;;;;;;;9.83;6.70;;;8.90;74.70;;;;;;5060387;28;20556;-69
2022/02/28 10:26:44;;;;;;;8.83;6.97;;;8.90;73.80;;;;;;5059601;28;20426;-69
2022/02/28 10:29:13;;;;;;;8.77;7.80;;;8.90;74.50;;;;;;5059735;28;20462;-70
2022/02/28 10:31:41;;;;;;;9.40;7.17;;;9.00;74.50;;;;;;5059197;28;20743;-67
2022/02/28 10:34:19;;;;;;;9.73;8.60;;;9.10;74.50;;;;;;5058786;28;20434;-68
2022/02/28 10:37:02;;;;;;;9.77;7.57;;;9.20;72.70;;;;;;5038592;28;20420;-71
2022/02/28 10:39:30;;;;;;;7.97;7.17;;;9.20;73.10;;;;;;5056965;28;20437;-70
2022/02/28 10:42:01;;;;;;;10.77;8.10;;;9.10;72.20;;;;;;5075680;28;20740;-70
2022/02/28 10:44:27;;;;;;;9.97;7.50;;;9.10;71.20;;;;;;5075855;28;20474;-72
2022/02/28 10:46:52;;;;;;;11.73;7.70;;;9.10;71.90;;;;;;5057988;28;20424;-69
2022/02/28 10:49:29;;;;;;;9.00;7.67;;;9.20;71.60;;;;;;5074562;28;20176;-69
2022/02/28 10:51:57;;;;;;;7.43;6.70;;;9.40;70.80;;;;;;5057476;28;20169;-69
2022/02/28 10:54:33;;;;;;;9.30;7.27;;;9.50;70.20;;;;;;5075307;28;20426;-70
2022/02/28 10:57:11;;;;;;;7.60;6.83;;;9.60;70.80;;;;;;5075188;28;20395;-69
2022/02/28 10:59:41;;;;;;;7.63;6.80;;;9.60;71.10;;;;;;5073901;28;20938;-68
2022/02/28 11:02:07;;;;;;;9.90;7.40;;;9.70;70.10;;;;;;5074882;28;20404;-69
2022/02/28 11:04:37;;;;;;;7.43;6.73;;;9.80;70.40;;;;;;5075039;28;21066;-69
2022/02/28 11:07:04;;;;;;;7.87;6.97;;;10.00;68.30;;;;;;5075061;28;20766;-68
2022/02/28 11:09:42;;;;;;;7.33;6.60;;;10.20;68.00;;;;;;5073479;28;20417;-69
2022/02/28 11:12:29;;;;;;;7.80;7.00;;;10.20;67.60;;;;;;5057190;28;20419;-69
2022/02/28 11:14:59;;;;;;;8.00;7.20;;;10.30;68.10;;;;;;5075692;28;20434;-69
2022/02/28 11:17:28;;;;;;;9.30;6.23;;;10.40;67.70;;;;;;5074892;28;20395;-68
2022/02/28 11:19:55;;;;;;;12.60;8.40;;;10.50;65.20;;;;;;5073126;28;20403;-68
2022/02/28 11:22:21;;;;;;;9.23;7.00;;;10.50;64.70;;;;;;5074669;28;20409;-68
2022/02/28 11:24:47;;;;;;;8.07;6.80;;;10.60;65.10;;;;;;5074965;28;20459;-70
2022/02/28 11:27:16;;;;;;;10.30;7.53;;;10.60;65.10;;;;;;5074760;28;20257;-67
2022/02/28 11:29:43;;;;;;;7.93;7.13;;;10.70;64.60;;;;;;5074953;28;20446;-68
2022/02/28 11:32:10;;;;;;;8.47;7.23;;;10.70;64.00;;;;;;5072915;28;20469;-68
2022/02/28 11:34:36;;;;;;;8.70;7.20;;;10.70;63.30;;;;;;5074915;28;20804;-70
2022/02/28 11:37:04;;;;;;;9.00;7.20;;;10.60;63.90;;;;;;5057253;28;20428;-68
2022/02/28 11:39:43;;;;;;;8.30;6.57;;;10.70;64.00;;;;;;5073987;28;20431;-69
2022/02/28 11:42:09;;;;;;;8.50;6.90;;;10.50;62.80;;;;;;5054840;28;20429;-69
2022/02/28 11:44:37;;;;;;;8.20;7.40;;;10.50;63.20;;;;;;5073966;28;20744;-68
2022/02/28 11:47:06;;;;;;;8.90;7.27;;;10.60;63.10;;;;;;5074924;28;20168;-70
2022/02/28 11:49:44;;;;;;;8.10;6.50;;;10.60;63.10;;;;;;5074419;28;20794;-68
2022/02/28 11:52:33;;;;;;;8.43;6.80;;;10.60;63.60;;;;;;5072078;28;20791;-68
2022/02/28 11:55:04;;;;;;;9.20;7.00;;;10.70;63.10;;;;;;5073831;28;20433;-69
2022/02/28 11:58:00;;;;;;;8.20;6.93;;;10.60;62.80;;;;;;5074075;28;20410;-69
2022/02/28 12:00:47;;;;;;;9.20;7.10;;;10.60;64.30;;;;;;5057283;28;20476;-69
2022/02/28 12:03:19;;;;;;;8.13;7.30;;;10.60;63.90;;;;;;5071984;28;20933;-68
2022/02/28 12:05:47;;;;;;;9.80;6.97;;;10.70;62.80;;;;;;5073697;28;20437;-69
2022/02/28 12:08:17;;;;;;;10.80;7.57;;;10.70;62.50;;;;;;5073977;28;20959;-69
2022/02/28 12:10:54;;;;;;;8.03;7.27;;;10.70;61.50;;;;;;5074477;28;20485;-67
2022/02/28 12:13:36;;;;;;;10.17;7.27;;;10.70;61.50;;;;;;5071836;28;20819;-68
2022/02/28 12:19:29;;;;;;;9.23;7.67;;;10.60;62.30;;;;;;5075278;28;20762;-69
2022/02/28 12:22:03;;;;;;;8.43;5.87;;;10.60;62.90;;;;;;5074285;28;20417;-68
2022/02/28 12:24:54;;;;;;;7.53;6.63;;;10.60;62.60;;;;;;5071755;28;21074;-69
2022/02/28 12:27:30;;;;;;;7.70;6.43;;;10.70;62.20;;;;;;5055971;28;20413;-68
2022/02/28 12:29:56;;;;;;;7.30;6.60;;;10.70;61.50;;;;;;5055844;28;20409;-69
2022/02/28 12:32:50;;;;;;;10.50;6.77;;;10.60;60.80;;;;;;5073605;28;20401;-69
2022/02/28 12:35:19;;;;;;;7.70;6.90;;;10.60;62.50;;;;;;5071913;28;20286;-69
2022/02/28 12:37:45;;;;;;;7.50;6.70;;;10.70;62.70;;;;;;5069345;28;20431;-68
2022/02/28 12:40:11;;;;;;;9.80;7.17;;;10.70;62.10;;;;;;5053995;28;20429;-68
2022/02/28 12:42:37;;;;;;;10.13;7.13;;;10.80;60.70;;;;;;5053861;28;20940;-69
2022/02/28 12:45:03;;;;;;;7.03;5.90;;;10.70;58.80;;;;;;5054196;28;21069;-70
2022/02/28 12:47:29;;;;;;;7.60;6.53;;;10.70;58.60;;;;;;5054169;28;20235;-69
2022/02/28 12:50:08;;;;;;;7.70;6.90;;;10.70;59.00;;;;;;5054051;28;20430;-70
2022/02/28 12:52:35;;;;;;;7.53;6.83;;;10.70;58.90;;;;;;5053581;28;20414;-69
2022/02/28 12:55:01;;;;;;;7.10;6.40;;;10.70;59.40;;;;;;5053651;28;21048;-68